createdAt,value
2023-04-15T00:00:59.491Z,0.67
2023-04-15T00:03:26.487Z,0.60
2023-04-15T00:05:53.363Z,0.80
2023-04-15T00:08:20.652Z,0.60
2023-04-15T00:10:47.353Z,0.93
2023-04-15T00:13:13.936Z,0.80
2023-04-15T00:15:41.031Z,0.93
2023-04-15T00:18:08.317Z,0.60
2023-04-15T00:20:35.805Z,0.90
2023-04-15T00:23:04.170Z,0.67
2023-04-15T00:25:31.003Z,0.63
2023-04-15T00:27:57.698Z,0.70
2023-04-15T00:30:24.433Z,0.67
2023-04-15T00:32:51.088Z,0.67
2023-04-15T00:35:18.323Z,0.80
2023-04-15T00:37:46.407Z,0.80
2023-04-15T00:40:13.955Z,0.90
2023-04-15T00:42:41.166Z,0.70
2023-04-15T00:45:08.872Z,0.80
2023-04-15T00:47:37.317Z,0.73
2023-04-15T00:50:05.120Z,0.50
2023-04-15T00:52:32.122Z,0.70
2023-04-15T00:54:59.550Z,0.47
2023-04-15T00:57:27.121Z,0.80
2023-04-15T00:59:54.362Z,0.77
2023-04-15T01:02:21.091Z,0.80
2023-04-15T01:04:47.711Z,0.63
2023-04-15T01:07:14.642Z,1.03
2023-04-15T01:09:42.134Z,0.60
2023-04-15T01:12:11.451Z,0.67
2023-04-15T01:14:38.111Z,0.77
2023-04-15T01:17:04.713Z,0.70
2023-04-15T01:19:31.731Z,1.07
2023-04-15T01:21:58.384Z,1.00
2023-04-15T01:24:27.155Z,1.00
2023-04-15T01:26:54.139Z,0.90
2023-04-15T01:29:21.046Z,1.00
2023-04-15T01:31:55.095Z,0.77
2023-04-15T01:34:22.452Z,1.00
2023-04-15T01:36:49.121Z,0.83
2023-04-15T01:39:15.989Z,0.60
2023-04-15T01:41:42.626Z,0.70
2023-04-15T01:44:09.383Z,0.70
2023-04-15T01:46:37.045Z,0.70
2023-04-15T01:49:03.780Z,0.90
2023-04-15T01:51:30.464Z,0.90
2023-04-15T01:53:57.051Z,1.10
2023-04-15T01:56:26.773Z,0.70
2023-04-15T01:58:54.749Z,0.97
2023-04-15T02:01:22.295Z,0.77
2023-04-15T02:03:49.150Z,0.60
2023-04-15T02:06:16.010Z,0.80
2023-04-15T02:08:42.639Z,0.70
2023-04-15T02:11:09.479Z,0.90
2023-04-15T02:13:36.386Z,0.70
2023-04-15T02:16:03.671Z,0.73
2023-04-15T02:18:30.652Z,0.70
2023-04-15T02:20:58.893Z,0.67
2023-04-15T02:23:25.924Z,0.80
2023-04-15T02:25:53.774Z,0.70
2023-04-15T02:28:21.320Z,1.00
2023-04-15T02:30:51.007Z,1.10
2023-04-15T02:33:18.084Z,0.80
2023-04-15T02:35:45.538Z,0.80
2023-04-15T02:38:12.407Z,1.17
2023-04-15T02:40:39.133Z,0.87
2023-04-15T02:43:07.177Z,0.50
2023-04-15T02:45:33.989Z,0.80
2023-04-15T02:48:04.039Z,0.93
2023-04-15T02:50:31.720Z,0.90
2023-04-15T02:52:58.352Z,0.57
2023-04-15T02:55:25.020Z,0.97
2023-04-15T02:57:51.696Z,1.10
2023-04-15T03:00:18.355Z,1.23
2023-04-15T03:02:46.964Z,0.90
2023-04-15T03:05:14.739Z,1.00
2023-04-15T03:07:41.503Z,0.80
2023-04-15T03:10:08.881Z,0.80
2023-04-15T03:12:35.488Z,1.07
2023-04-15T03:15:02.361Z,0.97
2023-04-15T03:17:29.058Z,1.20
2023-04-15T03:19:55.715Z,1.07
2023-04-15T03:22:22.316Z,1.00
2023-04-15T03:24:48.947Z,1.10
2023-04-15T03:27:15.552Z,1.20
2023-04-15T03:29:42.149Z,1.40
2023-04-15T03:32:08.735Z,1.10
2023-04-15T03:34:35.336Z,1.30
2023-04-15T03:37:01.887Z,1.30
2023-04-15T03:39:28.499Z,1.57
2023-04-15T03:41:55.131Z,1.73
2023-04-15T03:44:21.682Z,1.30
2023-04-15T03:46:48.434Z,0.70
2023-04-15T03:49:15.203Z,0.80
2023-04-15T03:51:41.827Z,0.90
2023-04-15T03:54:08.403Z,1.00
2023-04-15T03:56:34.972Z,1.23
2023-04-15T03:59:01.990Z,0.90
2023-04-15T04:01:28.891Z,1.20
2023-04-15T04:03:55.684Z,1.13
2023-04-15T04:06:22.349Z,1.57
2023-04-15T04:08:49.033Z,1.80
2023-04-15T04:11:15.613Z,1.70
2023-04-15T04:13:42.172Z,1.50
2023-04-15T04:16:08.875Z,1.80
2023-04-15T04:18:35.520Z,2.00
2023-04-15T04:21:02.198Z,1.37
2023-04-15T04:23:29.042Z,1.80
2023-04-15T04:25:55.721Z,1.67
2023-04-15T04:28:22.410Z,1.83
2023-04-15T04:30:49.110Z,1.70
2023-04-15T04:33:15.951Z,2.90
2023-04-15T04:35:42.592Z,2.10
2023-04-15T04:38:09.203Z,2.20
2023-04-15T04:40:35.803Z,2.00
2023-04-15T04:43:02.375Z,1.70
2023-04-15T04:45:29.089Z,1.70
2023-04-15T04:47:55.901Z,1.10
2023-04-15T04:50:22.581Z,0.90
2023-04-15T04:52:49.257Z,1.27
2023-04-15T04:55:16.059Z,1.30
2023-04-15T04:57:42.709Z,0.90
2023-04-15T05:00:09.862Z,0.93
2023-04-15T05:02:36.858Z,1.20
2023-04-15T05:05:03.730Z,1.33
2023-04-15T05:07:30.641Z,1.13
2023-04-15T05:09:57.234Z,1.10
2023-04-15T05:12:23.833Z,1.10
2023-04-15T05:14:50.523Z,0.90
2023-04-15T05:17:17.112Z,0.83
2023-04-15T05:19:43.679Z,0.73
2023-04-15T05:22:10.568Z,0.90
2023-04-15T05:24:37.141Z,0.80
2023-04-15T05:27:03.888Z,0.40
2023-04-15T05:29:30.786Z,0.70
2023-04-15T05:31:57.437Z,0.90
2023-04-15T05:34:24.018Z,1.37
2023-04-15T05:36:50.699Z,1.27
2023-04-15T05:39:17.282Z,0.70
2023-04-15T05:41:43.947Z,1.13
2023-04-15T05:44:10.767Z,1.80
2023-04-15T05:46:37.484Z,1.00
2023-04-15T05:49:04.238Z,1.70
2023-04-15T05:51:31.256Z,1.27
2023-04-15T05:53:57.826Z,1.60
2023-04-15T05:56:26.833Z,1.47
2023-04-15T05:58:53.896Z,1.50
2023-04-15T06:01:20.744Z,0.73
2023-04-15T06:03:47.479Z,1.10
2023-04-15T06:06:14.445Z,0.90
2023-04-15T06:08:41.493Z,1.00
2023-04-15T06:11:08.072Z,0.80
2023-04-15T06:13:35.117Z,0.80
2023-04-15T06:16:01.794Z,0.93
2023-04-15T06:18:28.400Z,0.80
2023-04-15T06:20:54.994Z,0.97
2023-04-15T06:23:21.622Z,0.87
2023-04-15T06:25:48.414Z,1.10
2023-04-15T06:28:15.009Z,0.90
2023-04-15T06:30:41.621Z,0.90
2023-04-15T06:33:08.340Z,0.70
2023-04-15T06:35:34.973Z,0.80
2023-04-15T06:38:01.709Z,0.60
2023-04-15T06:40:28.381Z,0.80
2023-04-15T06:42:55.681Z,0.60
2023-04-15T06:45:22.441Z,0.87
2023-04-15T06:47:49.053Z,0.50
2023-04-15T06:50:15.720Z,0.80
2023-04-15T06:52:42.474Z,1.30
2023-04-15T06:55:09.240Z,0.60
2023-04-15T06:57:36.099Z,0.53
2023-04-15T07:00:05.764Z,0.63
2023-04-15T07:02:32.612Z,0.50
2023-04-15T07:04:59.387Z,0.80
2023-04-15T07:07:26.476Z,0.50
2023-04-15T07:09:53.874Z,0.60
2023-04-15T07:12:20.868Z,0.40
2023-04-15T07:14:47.522Z,0.50
2023-04-15T07:17:14.187Z,0.57
2023-04-15T07:19:40.879Z,0.40
2023-04-15T07:22:07.837Z,0.60
2023-04-15T07:24:34.497Z,0.43
2023-04-15T07:27:01.876Z,0.63
2023-04-15T07:29:28.446Z,0.53
2023-04-15T07:31:56.718Z,0.70
2023-04-15T07:34:23.650Z,0.70
2023-04-15T07:36:52.994Z,0.63
2023-04-15T07:39:19.596Z,0.60
2023-04-15T07:41:46.659Z,0.60
2023-04-15T07:44:13.331Z,0.40
2023-04-15T07:46:40.022Z,0.60
2023-04-15T07:49:07.566Z,0.53
2023-04-15T07:51:34.286Z,0.50
2023-04-15T07:54:00.880Z,0.43
2023-04-15T07:56:27.912Z,0.63
2023-04-15T07:58:54.578Z,0.60
2023-04-15T08:01:21.205Z,0.60
2023-04-15T08:03:48.670Z,0.70
2023-04-15T08:06:15.388Z,0.40
2023-04-15T08:08:42.046Z,0.67
2023-04-15T08:11:09.095Z,0.40
2023-04-15T08:13:35.668Z,0.70
2023-04-15T08:16:19.400Z,0.57
2023-04-15T08:18:47.369Z,0.60
2023-04-15T08:21:14.089Z,0.60
2023-04-15T08:23:41.031Z,0.50
2023-04-15T08:26:08.694Z,0.50
2023-04-15T08:28:35.913Z,0.50
2023-04-15T08:31:02.617Z,0.57
2023-04-15T08:33:29.214Z,0.50
2023-04-15T08:35:55.851Z,0.40
2023-04-15T08:38:22.829Z,0.50
2023-04-15T08:40:49.582Z,0.50
2023-04-15T08:43:28.497Z,0.47
2023-04-15T08:45:55.872Z,0.50
2023-04-15T08:48:24.569Z,0.53
2023-04-15T08:50:51.501Z,0.60
2023-04-15T08:53:18.280Z,0.60
2023-04-15T08:55:46.248Z,0.67
2023-04-15T08:58:14.271Z,0.43
2023-04-15T09:00:41.400Z,0.80
2023-04-15T09:03:08.955Z,0.60
2023-04-15T09:05:36.610Z,0.50
2023-04-15T09:08:04.500Z,0.47
2023-04-15T09:10:32.325Z,0.60
2023-04-15T09:12:59.040Z,0.67
2023-04-15T09:15:27.581Z,0.60
2023-04-15T09:17:54.352Z,0.60
2023-04-15T09:20:21.090Z,0.30
2023-04-15T09:22:49.249Z,0.70
2023-04-15T09:25:15.963Z,0.40
2023-04-15T09:27:49.879Z,0.30
2023-04-15T09:30:16.928Z,0.40
2023-04-15T09:32:54.662Z,0.50
2023-04-15T09:35:22.364Z,0.40
2023-04-15T09:37:52.504Z,0.50
2023-04-15T09:40:39.228Z,0.40
2023-04-15T09:43:06.832Z,0.50
2023-04-15T09:45:34.728Z,0.57
2023-04-15T09:48:23.689Z,0.50
2023-04-15T09:50:50.578Z,0.80
2023-04-15T09:53:19.168Z,0.60
2023-04-15T09:55:57.220Z,0.50
2023-04-15T09:58:25.830Z,0.50
2023-04-15T10:00:53.639Z,0.70
2023-04-15T10:03:24.390Z,0.43
2023-04-15T10:05:52.714Z,0.50
2023-04-15T10:08:21.886Z,0.50
2023-04-15T10:10:48.998Z,0.60
2023-04-15T10:13:18.772Z,0.50
2023-04-15T10:16:09.908Z,0.60
2023-04-15T10:18:39.139Z,0.50
2023-04-15T10:21:06.183Z,0.50
2023-04-15T10:23:33.005Z,0.83
2023-04-15T10:25:59.953Z,0.60
2023-04-15T10:28:27.582Z,0.60
2023-04-15T10:30:54.473Z,0.50
2023-04-15T10:33:23.361Z,0.87
2023-04-15T10:35:51.797Z,0.43
2023-04-15T10:38:38.026Z,0.50
2023-04-15T10:41:20.423Z,0.40
2023-04-15T10:43:50.238Z,0.57
2023-04-15T10:46:46.066Z,0.50
2023-04-15T10:49:19.069Z,0.43
2023-04-15T10:51:52.934Z,0.77
2023-04-15T10:54:25.420Z,0.60
2023-04-15T10:57:16.970Z,0.60
2023-04-15T10:59:58.998Z,0.50
2023-04-15T11:02:46.573Z,0.43
2023-04-15T11:05:14.856Z,0.70
2023-04-15T11:07:41.499Z,0.47
2023-04-15T11:10:13.989Z,0.40
2023-04-15T11:12:41.364Z,0.50
2023-04-15T11:15:40.707Z,0.53
2023-04-15T11:18:17.300Z,0.50
2023-04-15T11:20:48.067Z,0.53
2023-04-15T11:23:16.110Z,0.40
2023-04-15T11:25:43.933Z,0.60
2023-04-15T11:28:12.135Z,0.55
2023-04-15T11:30:40.134Z,0.60
2023-04-15T11:33:12.190Z,0.40
2023-04-15T11:35:41.001Z,0.50
2023-04-15T11:38:13.792Z,0.40
2023-04-15T11:40:41.088Z,0.50
2023-04-15T11:43:08.596Z,0.50
2023-04-15T11:45:39.420Z,0.40
2023-04-15T11:48:10.656Z,0.40
2023-04-15T11:50:40.617Z,0.70
2023-04-15T11:53:08.824Z,0.40
2023-04-15T11:55:47.196Z,0.57
2023-04-15T11:58:18.387Z,0.60
2023-04-15T12:00:50.461Z,0.53
2023-04-15T12:03:23.236Z,0.43
2023-04-15T12:06:16.523Z,0.95
2023-04-15T12:08:55.930Z,0.60
2023-04-15T12:11:43.747Z,0.43
2023-04-15T12:14:18.716Z,0.70
2023-04-15T12:16:48.914Z,0.50
2023-04-15T12:19:22.735Z,0.70
2023-04-15T12:21:49.905Z,0.70
2023-04-15T12:24:21.078Z,0.60
2023-04-15T12:26:52.116Z,0.70
2023-04-15T12:29:19.296Z,0.82
2023-04-15T12:31:49.827Z,0.70
2023-04-15T12:34:16.923Z,0.90
2023-04-15T12:36:43.642Z,0.83
2023-04-15T12:39:10.532Z,0.73
2023-04-15T12:41:37.328Z,0.73
2023-04-15T12:44:04.314Z,0.95
2023-04-15T12:46:31.147Z,0.65
2023-04-15T12:48:57.799Z,0.65
2023-04-15T12:51:24.348Z,0.70
2023-04-15T12:53:51.140Z,0.80
2023-04-15T12:56:18.199Z,0.80
2023-04-15T12:58:44.848Z,0.77
2023-04-15T13:01:11.742Z,0.90
2023-04-15T13:03:38.787Z,0.68
2023-04-15T13:06:12.593Z,0.72
2023-04-15T13:08:45.208Z,0.80
2023-04-15T13:11:18.132Z,1.27
2023-04-15T13:13:44.919Z,1.00
2023-04-15T13:16:11.618Z,1.40
2023-04-15T13:18:38.275Z,1.17
2023-04-15T13:21:07.440Z,0.80
2023-04-15T13:23:34.194Z,0.50
2023-04-15T13:26:00.813Z,0.67
2023-04-15T13:28:27.396Z,0.80
2023-04-15T13:30:54.085Z,0.70
2023-04-15T13:33:20.929Z,0.83
2023-04-15T13:35:47.652Z,0.90
2023-04-15T13:38:14.306Z,0.70
2023-04-15T13:40:41.040Z,0.87
2023-04-15T13:43:07.788Z,0.80
2023-04-15T13:45:34.492Z,1.00
2023-04-15T13:48:01.263Z,0.93
2023-04-15T13:50:28.671Z,0.90
2023-04-15T13:52:55.316Z,0.97
2023-04-15T13:55:23.701Z,0.80
2023-04-15T13:57:52.224Z,0.73
2023-04-15T14:00:18.975Z,1.00
2023-04-15T14:02:46.369Z,1.00
2023-04-15T14:05:13.151Z,0.60
2023-04-15T14:07:39.799Z,1.10
2023-04-15T14:10:07.025Z,0.80
2023-04-15T14:12:33.739Z,0.87
2023-04-15T14:15:00.364Z,0.80
2023-04-15T14:17:27.276Z,0.80
2023-04-15T14:19:53.876Z,0.80
2023-04-15T14:22:20.580Z,0.90
2023-04-15T14:24:49.242Z,0.80
2023-04-15T14:27:16.791Z,0.90
2023-04-15T14:29:43.419Z,0.70
2023-04-15T14:32:12.657Z,0.70
2023-04-15T14:34:40.221Z,0.77
2023-04-15T14:37:07.014Z,0.87
2023-04-15T14:39:33.680Z,0.90
2023-04-15T14:42:00.360Z,0.80
2023-04-15T14:44:26.932Z,0.80
2023-04-15T14:46:53.880Z,1.07
2023-04-15T14:49:20.717Z,0.70
2023-04-15T14:51:47.253Z,1.00
2023-04-15T14:54:13.813Z,0.80
2023-04-15T14:56:40.458Z,0.83
2023-04-15T14:59:07.415Z,0.70
2023-04-15T15:01:34.510Z,0.80
2023-04-15T15:04:01.283Z,0.67
2023-04-15T15:06:28.048Z,1.10
2023-04-15T15:08:54.655Z,1.30
2023-04-15T15:11:21.388Z,1.20
2023-04-15T15:13:48.132Z,0.77
2023-04-15T15:16:14.879Z,0.80
2023-04-15T15:18:41.568Z,0.67
2023-04-15T15:21:08.107Z,0.70
2023-04-15T15:23:34.784Z,0.90
2023-04-15T15:26:01.570Z,0.67
2023-04-15T15:28:28.191Z,0.70
2023-04-15T15:30:54.925Z,0.60
2023-04-15T15:33:21.699Z,0.57
2023-04-15T15:35:48.377Z,0.70
2023-04-15T15:38:15.058Z,0.93
2023-04-15T15:40:41.655Z,0.97
2023-04-15T15:43:08.491Z,0.80
2023-04-15T15:45:35.819Z,1.10
2023-04-15T15:48:02.717Z,0.93
2023-04-15T15:50:29.417Z,0.90
2023-04-15T15:52:56.181Z,0.60
2023-04-15T15:55:23.477Z,1.00
2023-04-15T15:57:50.178Z,0.87
2023-04-15T16:00:17.214Z,0.60
2023-04-15T16:05:13.606Z,1.07
2023-04-15T16:07:40.183Z,1.10
2023-04-15T16:10:07.488Z,1.10
2023-04-15T16:12:35.030Z,1.03
2023-04-15T16:15:02.027Z,1.40
2023-04-15T16:17:28.721Z,1.40
2023-04-15T16:20:00.379Z,1.40
2023-04-15T16:22:27.759Z,1.30
2023-04-15T16:24:54.450Z,1.17
2023-04-15T16:27:21.146Z,1.57
2023-04-15T16:29:47.792Z,1.10
2023-04-15T16:32:14.598Z,0.67
2023-04-15T16:34:41.352Z,1.03
2023-04-15T16:37:08.321Z,0.80
2023-04-15T16:39:35.009Z,0.80
2023-04-15T16:42:03.033Z,0.66
2023-04-15T16:44:30.384Z,0.90
2023-04-15T16:46:57.127Z,0.80
2023-04-15T16:49:23.752Z,0.77
2023-04-15T16:51:50.360Z,0.90
2023-04-15T16:54:17.040Z,0.90
2023-04-15T16:56:43.592Z,1.30
2023-04-15T16:59:10.194Z,0.97
2023-04-15T17:01:39.595Z,0.50
2023-04-15T17:04:07.292Z,0.53
2023-04-15T17:06:33.998Z,0.70
2023-04-15T17:09:00.709Z,0.77
2023-04-15T17:11:28.217Z,0.83
2023-04-15T17:13:54.806Z,1.20
2023-04-15T17:16:21.630Z,1.30
2023-04-15T17:18:50.274Z,0.70
2023-04-15T17:21:17.576Z,1.07
2023-04-15T17:23:44.263Z,1.47
2023-04-15T17:26:11.183Z,1.90
2023-04-15T17:28:38.100Z,1.40
2023-04-15T17:31:05.297Z,1.50
2023-04-15T17:33:55.870Z,1.57
2023-04-15T17:36:18.630Z,1.47
2023-04-15T17:38:45.745Z,1.50
2023-04-15T17:41:12.533Z,1.77
2023-04-15T17:43:39.164Z,1.70
2023-04-15T17:46:07.275Z,1.67
2023-04-15T17:48:34.498Z,1.60
2023-04-15T17:51:01.137Z,1.93
2023-04-15T17:53:27.760Z,2.43
2023-04-15T17:55:54.416Z,2.77
2023-04-15T17:58:21.408Z,2.40
2023-04-15T18:00:48.083Z,2.50
2023-04-15T18:03:14.936Z,2.80
2023-04-15T18:05:42.626Z,2.80
2023-04-15T18:08:09.705Z,3.03
2023-04-15T18:10:36.714Z,2.43
2023-04-15T18:13:03.520Z,2.87
2023-04-15T18:15:33.045Z,3.40
2023-04-15T18:18:00.268Z,2.60
2023-04-15T18:20:27.045Z,2.40
2023-04-15T18:22:53.740Z,3.77
2023-04-15T18:25:20.497Z,2.43
2023-04-15T18:27:47.149Z,2.37
2023-04-15T18:30:13.748Z,2.73
2023-04-15T18:32:41.338Z,2.57
2023-04-15T18:35:08.459Z,2.53
2023-04-15T18:37:35.454Z,2.43
2023-04-15T18:40:02.256Z,2.60
2023-04-15T18:42:28.974Z,2.60
2023-04-15T18:44:55.664Z,3.10
2023-04-15T18:47:22.411Z,2.63
2023-04-15T18:49:49.368Z,2.77
2023-04-15T18:52:16.174Z,2.80
2023-04-15T18:54:42.827Z,3.30
2023-04-15T18:57:09.476Z,3.90
2023-04-15T18:59:36.457Z,3.60
2023-04-15T19:02:06.548Z,3.33
2023-04-15T19:04:33.320Z,2.57
2023-04-15T19:07:00.001Z,2.60
2023-04-15T19:09:26.794Z,2.37
2023-04-15T19:11:53.417Z,2.60
2023-04-15T19:14:19.974Z,2.10
2023-04-15T19:16:46.587Z,2.47
2023-04-15T19:19:14.698Z,2.17
2023-04-15T19:21:41.609Z,2.23
2023-04-15T19:24:08.186Z,2.60
2023-04-15T19:26:34.888Z,2.67
2023-04-15T19:29:01.504Z,2.83
2023-04-15T19:31:28.078Z,2.23
2023-04-15T19:33:54.705Z,2.13
2023-04-15T19:36:21.446Z,1.80
2023-04-15T19:38:48.019Z,2.70
2023-04-15T19:41:15.758Z,2.40
2023-04-15T19:43:42.355Z,2.30
2023-04-15T19:46:08.972Z,1.70
2023-04-15T19:48:36.951Z,1.93
2023-04-15T19:51:03.650Z,1.83
2023-04-15T19:53:30.346Z,2.00
2023-04-15T19:55:57.044Z,1.80
2023-04-15T19:58:23.756Z,2.20
2023-04-15T20:00:50.391Z,2.20
2023-04-15T20:03:17.649Z,2.07
2023-04-15T20:05:44.479Z,2.60
2023-04-15T20:08:11.086Z,2.10
2023-04-15T20:10:37.974Z,2.30
2023-04-15T20:13:04.603Z,2.70
2023-04-15T20:15:31.390Z,2.00
2023-04-15T20:17:58.087Z,2.00
2023-04-15T20:20:24.695Z,2.27
2023-04-15T20:22:52.749Z,2.40
2023-04-15T20:25:19.330Z,2.43
2023-04-15T20:27:45.951Z,2.27
2023-04-15T20:30:12.537Z,2.20
2023-04-15T20:32:39.242Z,2.83
2023-04-15T20:35:06.935Z,2.70
2023-04-15T20:37:34.008Z,2.60
2023-04-15T20:40:01.679Z,2.53
2023-04-15T20:42:28.652Z,2.77
2023-04-15T20:44:55.258Z,2.80
2023-04-15T20:47:21.962Z,2.67
2023-04-15T20:49:48.707Z,2.80
2023-04-15T20:52:15.272Z,6.90
2023-04-15T20:54:41.860Z,1.87
2023-04-15T20:57:08.452Z,1.23
2023-04-15T20:59:35.952Z,1.90
2023-04-15T21:02:02.790Z,2.00
2023-04-15T21:04:29.465Z,1.63
2023-04-15T21:06:56.127Z,1.97
2023-04-15T21:09:22.751Z,1.90
2023-04-15T21:14:19.334Z,1.77
2023-04-15T21:16:46.375Z,1.60
2023-04-15T21:19:13.046Z,1.60
2023-04-15T21:21:39.616Z,1.27
2023-04-15T21:24:09.066Z,1.50
2023-04-15T21:26:38.416Z,1.80
2023-04-15T21:29:05.478Z,1.30
2023-04-15T21:31:32.889Z,1.80
2023-04-15T21:33:59.520Z,1.87
2023-04-15T21:36:26.926Z,1.67
2023-04-15T21:38:53.510Z,2.13
2023-04-15T21:41:20.106Z,1.93
2023-04-15T21:43:46.737Z,2.40
2023-04-15T21:46:23.996Z,1.30
2023-04-15T21:48:53.308Z,1.67
2023-04-15T21:51:20.437Z,1.60
2023-04-15T21:53:47.076Z,1.90
2023-04-15T21:56:13.710Z,1.47
2023-04-15T21:58:40.436Z,1.30
2023-04-15T22:01:07.071Z,1.60
2023-04-15T22:03:34.668Z,1.60
2023-04-15T22:06:02.485Z,1.30
2023-04-15T22:08:30.127Z,1.50
2023-04-15T22:10:57.499Z,1.40
2023-04-15T22:13:24.125Z,1.67
2023-04-15T22:15:50.701Z,1.13
2023-04-15T22:18:17.424Z,1.10
2023-04-15T22:20:44.025Z,1.17
2023-04-15T22:23:10.647Z,1.50
2023-04-15T22:25:37.718Z,1.43
2023-04-15T22:28:07.411Z,1.50
2023-04-15T22:30:41.160Z,1.43
2023-04-15T22:33:09.257Z,1.40
2023-04-15T22:35:37.398Z,1.27
2023-04-15T22:38:04.863Z,1.80
2023-04-15T22:40:31.633Z,1.37
2023-04-15T22:42:58.296Z,1.97
2023-04-15T22:45:24.948Z,1.40
2023-04-15T22:47:51.561Z,1.70
2023-04-15T22:50:18.245Z,1.00
2023-04-15T22:52:46.668Z,1.87
2023-04-15T22:55:14.278Z,1.50
2023-04-15T22:57:40.956Z,1.80
2023-04-15T23:00:09.342Z,1.67
2023-04-15T23:02:36.083Z,2.20
2023-04-15T23:05:04.180Z,1.70
2023-04-15T23:07:39.010Z,1.93
2023-04-15T23:10:06.141Z,2.83
2023-04-15T23:12:32.736Z,2.77
2023-04-15T23:14:59.587Z,3.40
2023-04-15T23:17:26.789Z,1.93
2023-04-15T23:19:53.448Z,1.87
2023-04-15T23:22:20.032Z,1.57
2023-04-15T23:24:46.654Z,1.30
2023-04-15T23:27:13.200Z,1.33
2023-04-15T23:29:39.765Z,1.30
2023-04-15T23:32:06.765Z,1.20
2023-04-15T23:34:33.349Z,1.90
2023-04-15T23:36:59.992Z,1.30
2023-04-15T23:39:26.730Z,1.13
2023-04-15T23:41:53.521Z,1.00
2023-04-15T23:44:20.378Z,1.37
2023-04-15T23:46:47.063Z,0.80
2023-04-15T23:49:13.799Z,1.10
2023-04-15T23:51:41.029Z,1.10
2023-04-15T23:54:07.623Z,1.10
2023-04-15T23:56:34.274Z,1.10
2023-04-15T23:59:00.890Z,0.97
